Flight Track Log - Related Links

Times and Time Zones

All times are in EDT time to prevent confusion due to time zone crossing. See the N90PB flight status page for this flight to view local times or setup timezone preferences in your user account.

Time Position Orientation Groundspeed Altitude Reporting Facility
EDT Latitude Longitude Course Direction KTS MPH feet Rate Location/Type
Mon 01:58:36 PM 55.2000 -163.0167 246° West 140 161 13,000  Level Anchorage Center
Mon 01:59:37 PM 55.1833 -163.0833 246° West 150 173 15,100 1,488 Climbing Anchorage Center
Mon 02:00:00 PM 55.0504 -163.3095 248° West  Level FlightAware Approximate
Mon 02:00:37 PM 55.1500 -163.1667 235° Southwest 180 207 16,000  Level Anchorage Center
Mon 02:01:00 PM 55.0283 -163.4102 252° West  Level FlightAware Approximate
Mon 02:01:37 PM 55.1333 -163.2667 254° West 230 265 16,000  Level Anchorage Center
Mon 02:02:00 PM 55.0092 -163.5126 252° West  Level FlightAware Approximate
Mon 02:02:37 PM 55.1000 -163.3667 240° Southwest 230 265 16,000  Level Anchorage Center
Mon 02:03:37 PM 55.0833 -163.4667 254° West 220 253 16,000  Level Anchorage Center
Mon 02:05:00 PM 55.0244 -163.5748 226° Southwest  Level FlightAware Approximate
Mon 02:05:37 PM 55.0333 -163.6667 226° Southwest 230 265 16,000  Level Anchorage Center
Mon 02:06:37 PM 55.0000 -163.7667 240° Southwest 220 253 16,000  Level Anchorage Center
Mon 02:07:37 PM 54.9833 -163.8667 254° West 230 265 16,000  Level Anchorage Center
Mon 02:08:37 PM 54.9500 -163.9833 244° Southwest 230 265 16,000  Level Anchorage Center
Mon 02:09:38 PM 54.9167 -164.0833 240° Southwest 230 265 16,000  Level Anchorage Center
Mon 02:10:37 PM 54.9000 -164.1833 254° West 230 265 16,000  Level Anchorage Center
Mon 02:11:38 PM 54.8667 -164.2833 240° Southwest 230 265 16,000  Level Anchorage Center
Mon 02:12:38 PM 54.8333 -164.3833 240° Southwest 230 265 16,000  Level Anchorage Center
Mon 02:13:38 PM 54.8167 -164.4833 254° West 230 265 16,000  Level Anchorage Center
Mon 02:14:38 PM 54.7833 -164.5833 240° Southwest 220 253 16,000  Level Anchorage Center
Mon 02:15:38 PM 54.7500 -164.6833 240° Southwest 240 276 16,000  Level Anchorage Center
Mon 02:16:38 PM 54.7333 -164.7833 254° West 230 265 16,000  Level Anchorage Center
Mon 02:17:38 PM 54.7000 -164.8833 240° Southwest 230 265 16,000  Level Anchorage Center
Mon 02:18:38 PM 54.6833 -164.9833 254° West 230 265 16,000  Level Anchorage Center
Mon 02:19:38 PM 54.6500 -165.0833 240° Southwest 230 265 16,000  Level Anchorage Center
Mon 02:20:38 PM 54.6167 -165.1833 240° Southwest 230 265 16,000  Level Anchorage Center
Mon 02:21:38 PM 54.5833 -165.2833 240° Southwest 230 265 16,000  Level Anchorage Center
Mon 02:22:38 PM 54.5667 -165.4000 256° West 240 276 16,000  Level Anchorage Center
Mon 02:23:38 PM 54.5333 -165.5000 240° Southwest 230 265 16,000  Level Anchorage Center
Mon 02:24:39 PM 54.5000 -165.6000 240° Southwest 230 265 16,000  Level Anchorage Center
Mon 02:25:39 PM 54.4667 -165.7000 240° Southwest 240 276 16,000 -350 Level Anchorage Center
Mon 02:26:39 PM 54.4500 -165.8000 254° West 240 276 15,300 -1,200 Descending Anchorage Center
Mon 02:27:39 PM 54.4167 -165.9167 244° Southwest 260 299 13,600 -1,900 Descending Anchorage Center
Mon 02:28:39 PM 54.3833 -166.0167 240° Southwest 270 311 11,500 -2,000 Descending Anchorage Center
Mon 02:29:39 PM 54.3500 -166.1333 244° Southwest 250 288 9,600 -1,900 Descending Anchorage Center
Mon 02:32:00 PM 54.3111 -166.2599 242° Southwest  Level FlightAware Approximate
Mon 02:39:00 PM 53.9311 -166.5142 193° South  Level FlightAware Approximate
Mon 02:40:00 PM 53.8989 -166.5450 193° South  Level Estimated
Mon 02:41:00 PM 53.8989 -166.5450 193° South  Level Estimated
Mon 02:42:00 PM 53.8989 -166.5450 193° South  Level Estimated
Mon 02:43:00 PM 53.8989 -166.5450 193° South  Level Estimated
Mon 02:44:00 PM 53.8989 -166.5450 193° South  Level Estimated
Mon 02:45:00 PM 53.8989 -166.5450 193° South  Level Estimated
Mon 02:46:00 PM 53.8989 -166.5450 193° South  Level Estimated
Mon 02:47:00 PM 53.8989 -166.5450 193° South  Level Estimated
Mon 02:48:00 PM 53.8989 -166.5450 193° South  Level Estimated
Mon 02:49:00 PM 53.8989 -166.5450 193° South  Level Estimated
Mon 02:50:00 PM 53.8989 -166.5450 193° South  Level Estimated
Mon 02:51:00 PM 53.8989 -166.5450 193° South  Level Estimated
Mon 02:52:00 PM 53.8989 -166.5450 193° South  Level Estimated
Mon 02:53:00 PM 53.8989 -166.5450 193° South  Level Estimated

Login

Don't have an account? Register now (free) for customized features, flight alerts, and more!